createdAt,value
2019-03-27T00:01:01.585Z,99.90
2019-03-27T00:03:30.888Z,99.90
2019-03-27T00:06:00.204Z,99.90
2019-03-27T00:08:29.540Z,99.90
2019-03-27T00:10:58.854Z,99.90
2019-03-27T00:13:28.153Z,99.90
2019-03-27T00:15:57.472Z,99.90
2019-03-27T00:18:26.780Z,99.90
2019-03-27T00:20:56.106Z,99.90
2019-03-27T00:23:25.409Z,99.90
2019-03-27T00:25:54.722Z,99.90
2019-03-27T00:28:24.040Z,99.90
2019-03-27T00:30:53.377Z,99.90
2019-03-27T00:33:22.684Z,99.90
2019-03-27T00:35:52.018Z,99.90
2019-03-27T00:38:21.342Z,99.90
2019-03-27T00:40:50.656Z,99.90
2019-03-27T00:43:19.972Z,99.90
2019-03-27T00:45:49.275Z,99.90
2019-03-27T00:48:18.599Z,99.90
2019-03-27T00:50:47.904Z,99.90
2019-03-27T00:53:17.220Z,99.90
2019-03-27T00:55:46.523Z,99.90
2019-03-27T00:58:15.847Z,99.90
2019-03-27T01:00:48.246Z,99.90
2019-03-27T01:03:17.585Z,99.90
2019-03-27T01:05:46.888Z,99.90
2019-03-27T01:08:16.212Z,99.90
2019-03-27T01:10:45.524Z,99.90
2019-03-27T01:13:14.849Z,99.90
2019-03-27T01:15:44.156Z,99.90
2019-03-27T01:18:13.473Z,99.90
2019-03-27T01:20:42.855Z,99.90
2019-03-27T01:23:12.171Z,99.90
2019-03-27T01:25:41.484Z,99.90
2019-03-27T01:28:10.828Z,99.90
2019-03-27T01:30:40.268Z,99.90
2019-03-27T01:33:09.589Z,99.90
2019-03-27T01:35:38.887Z,99.90
2019-03-27T01:38:08.204Z,99.90
2019-03-27T01:40:37.507Z,99.90
2019-03-27T01:43:06.823Z,99.90
2019-03-27T01:45:36.124Z,99.90
2019-03-27T01:48:05.448Z,99.90
2019-03-27T01:50:34.836Z,99.90
2019-03-27T01:53:04.159Z,99.90
2019-03-27T01:55:34.439Z,99.90
2019-03-27T01:58:03.850Z,99.90
2019-03-27T02:00:33.176Z,99.90
2019-03-27T02:03:02.613Z,99.90
2019-03-27T02:05:32.008Z,99.90
2019-03-27T02:08:01.422Z,99.90
2019-03-27T02:10:30.818Z,99.90
2019-03-27T02:13:00.178Z,99.90
2019-03-27T02:15:29.535Z,99.90
2019-03-27T02:17:58.852Z,99.90
2019-03-27T02:20:28.231Z,99.90
2019-03-27T02:22:57.569Z,99.90
2019-03-27T02:25:26.937Z,99.90
2019-03-27T02:27:56.251Z,99.90
2019-03-27T02:30:25.627Z,99.90
2019-03-27T02:32:54.948Z,99.90
2019-03-27T02:35:24.429Z,99.90
2019-03-27T02:37:53.758Z,99.90
2019-03-27T02:40:24.036Z,99.90
2019-03-27T02:42:53.347Z,99.90
2019-03-27T02:45:22.734Z,99.90
2019-03-27T02:47:52.047Z,99.90
2019-03-27T02:50:21.355Z,99.90
2019-03-27T02:52:50.675Z,99.90
2019-03-27T02:55:19.999Z,99.90
2019-03-27T02:57:49.308Z,99.90
2019-03-27T03:00:18.951Z,99.90
2019-03-27T03:02:48.266Z,99.90
2019-03-27T03:05:17.577Z,99.90
2019-03-27T03:07:46.893Z,99.90
2019-03-27T03:10:18.134Z,99.90
2019-03-27T03:12:47.548Z,99.90
2019-03-27T03:15:22.039Z,99.90
2019-03-27T03:17:51.473Z,99.90
2019-03-27T03:20:20.856Z,99.90
2019-03-27T03:22:50.304Z,99.90
2019-03-27T03:25:19.626Z,99.90
2019-03-27T03:27:48.925Z,99.90
2019-03-27T03:30:18.318Z,99.90
2019-03-27T03:32:47.707Z,99.90
2019-03-27T03:35:17.022Z,99.90
2019-03-27T03:37:46.335Z,99.90
2019-03-27T03:40:16.413Z,99.90
2019-03-27T03:42:45.712Z,99.90
2019-03-27T03:45:15.880Z,99.90
2019-03-27T03:47:45.266Z,99.90
2019-03-27T03:50:35.563Z,99.90
2019-03-27T03:53:06.598Z,99.90
2019-03-27T03:55:38.162Z,99.90
2019-03-27T03:58:09.387Z,99.90
2019-03-27T04:00:39.115Z,99.90
2019-03-27T04:03:10.294Z,99.90
2019-03-27T04:05:39.607Z,99.90
2019-03-27T04:08:08.929Z,99.90
2019-03-27T04:10:38.247Z,99.90
2019-03-27T04:13:07.576Z,99.90
2019-03-27T04:15:36.955Z,99.90
2019-03-27T04:18:06.262Z,99.90
2019-03-27T04:20:35.593Z,99.90
2019-03-27T04:23:04.907Z,99.90
2019-03-27T04:26:00.354Z,99.90
2019-03-27T04:28:05.229Z,99.90
2019-03-27T04:30:34.557Z,99.90
2019-03-27T04:33:03.864Z,99.90
2019-03-27T04:35:33.192Z,99.90
2019-03-27T04:38:02.506Z,99.90
2019-03-27T04:40:31.826Z,99.90
2019-03-27T04:43:01.147Z,99.90
2019-03-27T04:45:30.458Z,99.90
2019-03-27T04:47:59.768Z,99.90
2019-03-27T04:50:29.087Z,99.90
2019-03-27T04:52:58.400Z,99.90
2019-03-27T04:55:27.720Z,99.90
2019-03-27T04:57:57.027Z,99.90
2019-03-27T05:00:26.349Z,99.90
2019-03-27T05:02:55.659Z,99.90
2019-03-27T05:05:24.981Z,99.90
2019-03-27T05:07:54.295Z,99.90
2019-03-27T05:10:23.624Z,99.90
2019-03-27T05:12:52.940Z,99.90
2019-03-27T05:15:22.256Z,99.90
2019-03-27T05:17:51.668Z,99.90
2019-03-27T05:20:21.029Z,99.90
2019-03-27T05:22:50.330Z,99.90
2019-03-27T05:25:19.660Z,99.90
2019-03-27T05:27:48.985Z,99.90
2019-03-27T05:30:29.219Z,99.90
2019-03-27T05:32:58.696Z,99.90
2019-03-27T05:35:28.014Z,99.90
2019-03-27T05:37:57.320Z,99.90
2019-03-27T05:40:26.658Z,99.90
2019-03-27T05:43:00.825Z,99.90
2019-03-27T05:45:26.992Z,99.90
2019-03-27T05:47:59.801Z,99.90
2019-03-27T05:50:27.316Z,99.90
2019-03-27T05:52:56.619Z,99.90
2019-03-27T05:55:26.739Z,99.90
2019-03-27T05:57:56.419Z,99.90
2019-03-27T06:00:25.823Z,99.90
2019-03-27T06:02:55.129Z,99.90
2019-03-27T06:05:24.460Z,99.90
2019-03-27T06:07:53.769Z,99.90
2019-03-27T06:10:23.089Z,99.90
2019-03-27T06:12:52.415Z,99.90
2019-03-27T06:15:21.816Z,99.90
2019-03-27T06:17:51.115Z,99.90
2019-03-27T06:20:20.434Z,99.90
2019-03-27T06:22:49.743Z,99.90
2019-03-27T06:25:19.087Z,99.90
2019-03-27T06:27:48.393Z,99.90
2019-03-27T06:30:17.782Z,99.90
2019-03-27T06:32:47.142Z,99.90
2019-03-27T06:35:16.539Z,99.90
2019-03-27T06:37:45.850Z,99.90
2019-03-27T06:40:15.250Z,99.90
2019-03-27T06:42:44.549Z,99.90
2019-03-27T06:45:14.020Z,99.90
2019-03-27T06:47:43.340Z,99.90
2019-03-27T06:50:13.930Z,99.90
2019-03-27T06:52:43.358Z,99.90
2019-03-27T06:55:12.686Z,99.90
2019-03-27T06:57:42.966Z,99.90
2019-03-27T07:00:12.646Z,99.90
2019-03-27T07:02:41.945Z,99.90
2019-03-27T07:05:11.504Z,99.90
2019-03-27T07:07:40.808Z,99.90
2019-03-27T07:10:10.292Z,99.90
2019-03-27T07:12:39.596Z,99.90
2019-03-27T07:15:09.101Z,99.90
2019-03-27T07:17:38.416Z,99.90
2019-03-27T07:20:08.175Z,99.90
2019-03-27T07:22:37.479Z,99.90
2019-03-27T07:25:07.628Z,99.90
2019-03-27T07:27:37.913Z,99.90
2019-03-27T07:30:09.086Z,99.90
2019-03-27T07:32:38.414Z,99.90
2019-03-27T07:35:09.294Z,99.90
2019-03-27T07:37:38.737Z,99.90
2019-03-27T07:40:08.498Z,99.90
2019-03-27T07:42:38.780Z,99.90
2019-03-27T07:45:10.404Z,99.90
2019-03-27T07:47:39.724Z,99.90
2019-03-27T07:50:09.296Z,99.90
2019-03-27T07:52:38.681Z,99.90
2019-03-27T07:55:18.837Z,99.90
2019-03-27T07:57:39.165Z,99.90
2019-03-27T08:00:14.703Z,99.90
2019-03-27T08:02:44.093Z,99.90
2019-03-27T08:05:13.549Z,99.90
2019-03-27T08:07:42.863Z,99.90
2019-03-27T08:10:12.584Z,99.90
2019-03-27T08:12:41.910Z,99.90
2019-03-27T08:15:11.579Z,99.90
2019-03-27T08:17:40.894Z,99.90
2019-03-27T08:20:11.237Z,99.90
2019-03-27T08:22:40.551Z,99.90
2019-03-27T08:25:10.441Z,99.90
2019-03-27T08:27:39.773Z,99.90
2019-03-27T08:30:13.760Z,99.90
2019-03-27T08:32:43.077Z,99.90
2019-03-27T08:35:13.520Z,99.90
2019-03-27T08:37:42.851Z,99.90
2019-03-27T08:40:12.604Z,99.90
2019-03-27T08:42:41.929Z,99.90
2019-03-27T08:45:11.589Z,99.90
2019-03-27T08:47:40.970Z,99.90
2019-03-27T08:50:11.428Z,99.90
2019-03-27T08:52:40.740Z,99.90
2019-03-27T08:55:13.546Z,99.90
2019-03-27T08:57:41.941Z,99.90
2019-03-27T09:00:14.599Z,99.90
2019-03-27T09:02:43.931Z,99.90
2019-03-27T09:05:13.582Z,99.90
2019-03-27T09:07:42.909Z,99.90
2019-03-27T09:10:13.161Z,99.90
2019-03-27T09:12:42.484Z,99.90
2019-03-27T09:15:12.648Z,99.90
2019-03-27T09:17:41.968Z,99.90
2019-03-27T09:20:11.524Z,99.90
2019-03-27T09:22:40.834Z,99.90
2019-03-27T09:25:10.511Z,99.90
2019-03-27T09:27:39.839Z,99.90
2019-03-27T09:30:11.972Z,99.90
2019-03-27T09:32:41.292Z,99.90
2019-03-27T09:35:10.673Z,99.90
2019-03-27T09:37:39.993Z,99.90
2019-03-27T09:40:09.436Z,99.90
2019-03-27T09:42:38.764Z,99.90
2019-03-27T09:45:09.503Z,99.90
2019-03-27T09:47:39.006Z,99.90
2019-03-27T09:50:08.670Z,99.90
2019-03-27T09:52:37.988Z,99.90
2019-03-27T09:55:07.663Z,99.90
2019-03-27T09:57:38.064Z,99.90
2019-03-27T10:00:08.229Z,99.90
2019-03-27T10:02:37.627Z,99.90
2019-03-27T10:05:07.881Z,99.90
2019-03-27T10:07:37.218Z,99.90
2019-03-27T10:10:07.775Z,99.90
2019-03-27T10:12:37.119Z,99.90
2019-03-27T10:15:08.233Z,99.90
2019-03-27T10:17:37.553Z,99.90
2019-03-27T10:20:07.204Z,99.90
2019-03-27T10:22:36.520Z,99.50
2019-03-27T10:25:07.573Z,99.20
2019-03-27T10:27:36.892Z,99.50
2019-03-27T10:30:07.542Z,99.40
2019-03-27T10:32:37.835Z,99.90
2019-03-27T10:35:07.321Z,99.90
2019-03-27T10:37:36.637Z,99.60
2019-03-27T10:40:07.670Z,99.00
2019-03-27T10:42:36.996Z,98.40
2019-03-27T10:45:06.852Z,98.10
2019-03-27T10:47:36.178Z,98.30
2019-03-27T10:50:17.012Z,97.00
2019-03-27T10:52:37.234Z,97.50
2019-03-27T10:55:06.768Z,97.80
2019-03-27T10:57:36.109Z,98.30
2019-03-27T11:00:10.667Z,98.50
2019-03-27T11:02:40.161Z,98.80
2019-03-27T11:05:09.729Z,98.20
2019-03-27T11:07:39.217Z,98.30
2019-03-27T11:10:08.868Z,98.10
2019-03-27T11:12:38.195Z,98.40
2019-03-27T11:15:08.749Z,98.70
2019-03-27T11:17:38.059Z,99.40
2019-03-27T11:20:08.117Z,99.90
2019-03-27T11:22:37.441Z,99.30
2019-03-27T11:25:07.484Z,99.20
2019-03-27T11:27:36.820Z,98.90
2019-03-27T11:30:09.882Z,99.60
2019-03-27T11:32:39.778Z,98.00
2019-03-27T11:35:09.153Z,97.80
2019-03-27T11:37:39.456Z,97.90
2019-03-27T11:40:09.122Z,97.60
2019-03-27T11:42:38.431Z,97.90
2019-03-27T11:45:08.286Z,97.80
2019-03-27T11:47:37.610Z,97.80
2019-03-27T11:50:09.350Z,97.30
2019-03-27T11:52:38.676Z,97.60
2019-03-27T11:55:08.336Z,97.00
2019-03-27T11:57:37.636Z,97.20
2019-03-27T12:00:10.024Z,96.20
2019-03-27T12:02:39.501Z,96.60
2019-03-27T12:05:09.060Z,96.30
2019-03-27T12:07:38.377Z,95.60
2019-03-27T12:10:08.224Z,96.00
2019-03-27T12:12:37.537Z,96.20
2019-03-27T12:15:08.787Z,96.70
2019-03-27T12:17:38.093Z,96.80
2019-03-27T12:20:08.970Z,97.30
2019-03-27T12:22:38.275Z,97.10
2019-03-27T12:25:08.253Z,97.10
2019-03-27T12:27:37.573Z,97.10
2019-03-27T12:30:07.837Z,95.10
2019-03-27T12:32:37.140Z,94.50
2019-03-27T12:35:06.788Z,94.00
2019-03-27T12:37:36.106Z,93.50
2019-03-27T12:40:11.938Z,93.10
2019-03-27T12:42:41.411Z,93.30
2019-03-27T12:45:12.198Z,94.40
2019-03-27T12:47:41.569Z,95.10
2019-03-27T12:50:15.080Z,95.30
2019-03-27T12:52:44.396Z,94.90
2019-03-27T12:55:27.020Z,94.60
2019-03-27T12:58:00.185Z,94.10
2019-03-27T13:00:42.090Z,94.20
2019-03-27T13:03:19.753Z,93.10
2019-03-27T13:07:22.117Z,93.20
2019-03-27T13:08:59.082Z,93.10
2019-03-27T13:11:33.062Z,93.00
2019-03-27T13:14:04.094Z,93.70
2019-03-27T13:16:54.338Z,94.10
2019-03-27T13:19:23.848Z,94.60
2019-03-27T13:21:54.777Z,93.80
2019-03-27T13:24:27.091Z,94.90
2019-03-27T13:26:56.885Z,94.80
2019-03-27T13:29:28.643Z,94.50
2019-03-27T13:32:01.466Z,94.90
2019-03-27T13:34:30.791Z,95.00
2019-03-27T13:37:07.624Z,95.50
2019-03-27T13:39:36.964Z,94.90
2019-03-27T13:42:07.327Z,95.20
2019-03-27T13:44:37.601Z,94.80
2019-03-27T13:47:07.155Z,94.50
2019-03-27T13:49:36.544Z,95.10
2019-03-27T13:52:08.516Z,95.50
2019-03-27T13:54:37.852Z,95.60
2019-03-27T13:57:07.153Z,95.70
2019-03-27T13:59:36.468Z,95.40
2019-03-27T14:02:05.780Z,95.90
2019-03-27T14:04:39.628Z,95.10
2019-03-27T14:07:08.965Z,95.40
2019-03-27T14:09:38.303Z,95.30
2019-03-27T14:12:07.717Z,95.50
2019-03-27T14:14:49.700Z,95.60
2019-03-27T14:17:08.129Z,96.00
2019-03-27T14:19:37.449Z,95.60
2019-03-27T14:22:06.774Z,95.60
2019-03-27T14:24:36.082Z,95.30
2019-03-27T14:27:05.385Z,95.10
2019-03-27T14:29:34.705Z,95.40
2019-03-27T14:32:04.028Z,95.40
2019-03-27T14:34:33.448Z,95.80
2019-03-27T14:37:02.771Z,95.20
2019-03-27T14:39:32.122Z,95.00
2019-03-27T14:42:01.819Z,95.50
2019-03-27T14:44:31.220Z,95.50
2019-03-27T14:47:00.528Z,95.50
2019-03-27T14:49:30.954Z,95.40
2019-03-27T14:52:08.113Z,95.60
2019-03-27T14:54:31.438Z,95.80
2019-03-27T14:57:00.908Z,95.80
2019-03-27T14:59:30.266Z,95.60
2019-03-27T15:02:04.133Z,96.00
2019-03-27T15:04:33.461Z,96.50
2019-03-27T15:07:02.815Z,96.00
2019-03-27T15:09:32.119Z,96.00
2019-03-27T15:12:04.421Z,95.80
2019-03-27T15:14:35.757Z,95.90
2019-03-27T15:17:05.773Z,96.10
2019-03-27T15:19:45.395Z,96.30
2019-03-27T15:22:25.066Z,96.40
2019-03-27T15:25:07.656Z,96.60
2019-03-27T15:30:42.191Z,96.80
2019-03-27T15:33:11.501Z,96.50
2019-03-27T15:35:40.822Z,96.70
2019-03-27T15:38:11.817Z,96.80
2019-03-27T15:40:45.580Z,96.90
2019-03-27T15:43:18.148Z,96.70
2019-03-27T15:45:47.482Z,96.80
2019-03-27T15:48:16.796Z,96.80
2019-03-27T15:50:56.855Z,96.90
2019-03-27T15:53:17.116Z,97.00
2019-03-27T15:55:46.530Z,97.10
2019-03-27T15:58:15.851Z,97.10
2019-03-27T16:00:45.437Z,97.10
2019-03-27T16:10:44.185Z,97.60
2019-03-27T16:16:11.317Z,98.10
2019-03-27T16:18:40.638Z,98.50
2019-03-27T16:21:09.962Z,98.70
2019-03-27T16:23:42.104Z,99.00
2019-03-27T16:26:10.326Z,99.40
2019-03-27T16:28:39.674Z,99.90
2019-03-27T16:31:09.122Z,99.80
2019-03-27T16:33:38.492Z,99.90
2019-03-27T16:36:07.855Z,99.90
2019-03-27T16:38:37.167Z,99.90
2019-03-27T16:41:06.598Z,99.90
2019-03-27T16:43:36.074Z,99.90
2019-03-27T16:46:05.518Z,99.90
2019-03-27T16:48:34.830Z,99.90
2019-03-27T16:51:04.220Z,99.90
2019-03-27T16:53:34.509Z,99.90
2019-03-27T16:56:03.895Z,99.90
2019-03-27T16:58:33.221Z,99.90
2019-03-27T17:01:02.572Z,99.90
2019-03-27T17:03:31.894Z,99.90
2019-03-27T17:06:01.198Z,99.90
2019-03-27T17:08:30.512Z,99.90
2019-03-27T17:10:59.851Z,99.90
2019-03-27T17:13:29.225Z,99.90
2019-03-27T17:15:59.902Z,99.90
2019-03-27T17:18:29.371Z,99.90
2019-03-27T17:20:58.692Z,99.90
2019-03-27T17:23:28.029Z,99.90
2019-03-27T17:25:57.445Z,99.90
2019-03-27T17:28:26.859Z,99.90
2019-03-27T17:30:56.343Z,99.90
2019-03-27T17:33:25.722Z,99.90
2019-03-27T17:35:55.031Z,99.90
2019-03-27T17:38:24.355Z,99.90
2019-03-27T17:40:53.662Z,99.90
2019-03-27T17:43:22.980Z,99.90
2019-03-27T17:45:52.287Z,99.90
2019-03-27T17:48:21.639Z,99.90
2019-03-27T17:50:50.964Z,99.90
2019-03-27T17:53:31.017Z,99.90
2019-03-27T17:55:51.323Z,99.90
2019-03-27T17:58:20.637Z,99.90
2019-03-27T18:00:51.252Z,99.90
2019-03-27T18:03:20.568Z,99.90
2019-03-27T18:05:49.882Z,99.90
2019-03-27T18:08:19.201Z,99.90
2019-03-27T18:10:48.511Z,99.90
2019-03-27T18:13:17.906Z,99.90
2019-03-27T18:15:47.223Z,99.90
2019-03-27T18:18:16.547Z,99.90
2019-03-27T18:20:45.853Z,99.90
2019-03-27T18:23:15.168Z,99.90
2019-03-27T18:25:44.481Z,99.90
2019-03-27T18:28:13.800Z,99.90
2019-03-27T18:30:43.127Z,99.90
2019-03-27T18:33:12.461Z,99.90
2019-03-27T18:35:41.838Z,99.90
2019-03-27T18:38:11.157Z,99.90
2019-03-27T18:40:40.476Z,99.90
2019-03-27T18:43:10.773Z,99.90
2019-03-27T18:45:40.097Z,99.90
2019-03-27T18:48:09.420Z,99.90
2019-03-27T18:50:38.726Z,99.90
2019-03-27T18:53:08.040Z,99.90
2019-03-27T18:55:37.368Z,99.90
2019-03-27T18:58:07.261Z,99.90
2019-03-27T19:00:36.598Z,99.90
2019-03-27T19:03:06.041Z,99.90
2019-03-27T19:05:35.373Z,99.90
2019-03-27T19:08:04.688Z,99.90
2019-03-27T19:10:34.185Z,99.90
2019-03-27T19:13:03.539Z,99.90
2019-03-27T19:15:32.943Z,99.90
2019-03-27T19:18:03.256Z,99.90
2019-03-27T19:20:32.649Z,99.90
2019-03-27T19:23:01.966Z,99.90
2019-03-27T19:25:31.271Z,99.90
2019-03-27T19:28:00.663Z,99.90
2019-03-27T19:30:29.984Z,99.90
2019-03-27T19:32:59.368Z,99.90
2019-03-27T19:35:28.679Z,99.90
2019-03-27T19:37:57.997Z,99.90
2019-03-27T19:40:27.317Z,99.90
2019-03-27T19:42:56.663Z,99.90
2019-03-27T19:45:26.110Z,99.90
2019-03-27T19:47:56.621Z,99.90
2019-03-27T19:50:26.004Z,99.90
2019-03-27T19:52:55.398Z,99.90
2019-03-27T19:55:24.713Z,99.90
2019-03-27T19:58:01.001Z,99.90
2019-03-27T20:00:36.705Z,99.90
2019-03-27T20:03:06.144Z,99.90
2019-03-27T20:05:35.973Z,99.90
2019-03-27T20:08:05.497Z,99.90
2019-03-27T20:10:34.881Z,99.90
2019-03-27T20:13:04.208Z,99.90
2019-03-27T20:15:33.569Z,99.90
2019-03-27T20:18:04.460Z,99.90
2019-03-27T20:20:38.427Z,99.90
2019-03-27T20:23:14.832Z,99.90
2019-03-27T20:25:41.234Z,99.90
2019-03-27T20:28:12.467Z,99.90
2019-03-27T20:30:42.196Z,99.90
2019-03-27T20:33:15.000Z,99.90
2019-03-27T20:35:46.152Z,99.90
2019-03-27T20:38:15.899Z,99.90
2019-03-27T20:40:47.393Z,99.90
2019-03-27T20:43:17.992Z,99.90
2019-03-27T20:45:47.702Z,99.90
2019-03-27T20:48:18.503Z,99.90
2019-03-27T20:50:49.838Z,99.90
2019-03-27T20:53:19.334Z,99.90
2019-03-27T20:55:48.656Z,99.90
2019-03-27T20:58:17.977Z,99.90
2019-03-27T21:00:47.364Z,99.90
2019-03-27T21:06:17.018Z,99.90
2019-03-27T21:07:01.251Z,99.90
2019-03-27T21:08:46.398Z,99.90
2019-03-27T21:11:17.016Z,99.90
2019-03-27T21:13:46.373Z,99.90
2019-03-27T21:16:15.807Z,99.90
2019-03-27T21:18:45.155Z,99.90
2019-03-27T21:21:30.264Z,99.90
2019-03-27T21:24:04.181Z,99.90
2019-03-27T21:26:33.610Z,99.90
2019-03-27T21:29:04.641Z,99.90
2019-03-27T21:31:39.817Z,99.90
2019-03-27T21:34:09.145Z,99.90
2019-03-27T21:36:40.081Z,99.90
2019-03-27T21:46:55.013Z,99.90
2019-03-27T21:53:00.444Z,99.90
2019-03-27T21:55:26.493Z,99.90
2019-03-27T21:57:58.102Z,99.90
2019-03-27T22:00:45.664Z,99.90
2019-03-27T22:03:38.410Z,99.90
2019-03-27T22:06:09.433Z,99.90
2019-03-27T22:08:59.770Z,99.90
2019-03-27T22:11:28.009Z,99.90
2019-03-27T22:13:57.340Z,99.90
2019-03-27T22:16:26.668Z,99.90
2019-03-27T22:18:56.052Z,99.90
2019-03-27T22:21:25.534Z,99.90
2019-03-27T22:23:54.875Z,99.90
2019-03-27T22:26:24.212Z,99.90
2019-03-27T22:28:53.599Z,99.90
2019-03-27T22:31:22.929Z,99.90
2019-03-27T22:33:52.236Z,99.90
2019-03-27T22:36:21.554Z,99.90
2019-03-27T22:38:50.866Z,99.90
2019-03-27T22:41:20.183Z,99.90
2019-03-27T22:43:49.495Z,99.90
2019-03-27T22:46:19.887Z,99.90
2019-03-27T22:48:49.200Z,99.90
2019-03-27T22:51:18.516Z,99.90
2019-03-27T22:53:47.832Z,99.90
2019-03-27T22:56:17.151Z,99.90
2019-03-27T22:58:46.471Z,99.90
2019-03-27T23:01:15.803Z,99.90
2019-03-27T23:03:46.085Z,99.90
2019-03-27T23:06:15.412Z,99.90
2019-03-27T23:08:44.716Z,99.90
2019-03-27T23:11:14.029Z,99.90
2019-03-27T23:13:43.340Z,99.90
2019-03-27T23:16:12.738Z,99.90
2019-03-27T23:18:42.040Z,99.90
2019-03-27T23:21:11.424Z,99.90
2019-03-27T23:23:40.741Z,99.90
2019-03-27T23:26:10.065Z,99.90
2019-03-27T23:28:39.377Z,99.90
2019-03-27T23:31:08.713Z,99.90
2019-03-27T23:33:38.030Z,99.90
2019-03-27T23:36:07.365Z,99.90
2019-03-27T23:38:36.747Z,99.90
2019-03-27T23:41:06.086Z,99.90
2019-03-27T23:43:35.393Z,99.90
2019-03-27T23:46:04.720Z,99.90
2019-03-27T23:48:34.031Z,99.90
2019-03-27T23:51:03.348Z,99.90
2019-03-27T23:53:32.656Z,99.90
2019-03-27T23:56:01.988Z,99.90
2019-03-27T23:58:31.310Z,99.90
